createdAt,value
2023-05-10T00:02:24.678Z,101090.80
2023-05-10T00:05:52.520Z,101088.62
2023-05-10T00:09:17.879Z,101086.41
2023-05-10T00:11:58.962Z,101084.10
2023-05-10T00:15:30.908Z,101081.09
2023-05-10T00:19:15.084Z,101079.38
2023-05-10T00:23:01.714Z,101080.93
2023-05-10T00:26:39.244Z,101076.19
2023-05-10T00:29:34.948Z,101073.91
2023-05-10T00:33:21.375Z,101073.51
2023-05-10T00:36:36.859Z,101070.47
2023-05-10T00:40:23.850Z,101068.78
2023-05-10T00:43:53.746Z,101073.92
2023-05-10T00:46:56.103Z,101073.05
2023-05-10T00:50:00.964Z,101071.40
2023-05-10T00:53:08.551Z,101067.90
2023-05-10T00:56:14.536Z,101065.41
2023-05-10T00:59:39.556Z,101063.30
2023-05-10T01:03:02.532Z,101061.14
2023-05-10T01:06:50.308Z,101058.08
2023-05-10T01:10:20.636Z,101052.30
2023-05-10T01:13:55.469Z,101052.76
2023-05-10T01:17:21.296Z,101048.41
2023-05-10T01:20:39.676Z,101046.64
2023-05-10T01:24:12.583Z,101043.11
2023-05-10T01:27:58.662Z,101043.27
2023-05-10T01:31:31.927Z,101039.73
2023-05-10T01:34:49.361Z,101035.23
2023-05-10T01:38:57.435Z,101037.38
2023-05-10T01:42:17.386Z,101032.66
2023-05-10T01:45:59.812Z,101032.26
2023-05-10T01:49:34.382Z,101030.98
2023-05-10T01:53:07.563Z,101029.83
2023-05-10T01:56:55.324Z,101028.45
2023-05-10T02:00:33.979Z,101026.50
2023-05-10T02:04:24.444Z,101026.49
2023-05-10T02:06:57.931Z,101021.23
2023-05-10T02:10:18.734Z,101019.88
2023-05-10T02:13:12.008Z,101018.86
2023-05-10T02:16:15.252Z,101017.55
2023-05-10T02:19:52.684Z,101013.11
2023-05-10T02:23:22.814Z,101011.45
2023-05-10T02:26:18.093Z,101010.80
2023-05-10T02:29:19.545Z,101011.50
2023-05-10T02:32:20.022Z,101012.27
2023-05-10T02:35:17.077Z,101010.98
2023-05-10T02:38:09.126Z,101014.59
2023-05-10T02:41:07.692Z,101018.38
2023-05-10T02:43:57.036Z,101013.38
2023-05-10T02:47:14.480Z,101016.41
2023-05-10T02:49:47.651Z,101015.42
2023-05-10T02:53:12.458Z,101021.65
2023-05-10T02:56:04.123Z,101020.20
2023-05-10T02:59:07.387Z,101019.50
2023-05-10T03:02:28.356Z,101017.18
2023-05-10T03:05:51.518Z,101021.32
2023-05-10T03:09:12.535Z,101016.27
2023-05-10T03:13:15.285Z,101015.16
2023-05-10T03:16:58.417Z,101012.20
2023-05-10T03:20:32.591Z,101010.83
2023-05-10T03:23:23.887Z,101008.02
2023-05-10T03:26:59.312Z,101003.84
2023-05-10T03:29:56.666Z,100998.68
2023-05-10T03:33:32.153Z,101001.52
2023-05-10T03:37:17.261Z,101003.29
2023-05-10T03:40:39.269Z,100996.09
2023-05-10T03:44:18.876Z,100995.70
2023-05-10T03:47:49.603Z,100991.55
2023-05-10T03:51:28.259Z,100991.84
2023-05-10T03:55:08.545Z,100989.66
2023-05-10T03:58:56.083Z,100996.34
2023-05-10T04:02:33.468Z,100996.27
2023-05-10T04:06:21.148Z,100994.58
2023-05-10T04:09:37.492Z,100997.98
2023-05-10T04:12:27.321Z,100993.30
2023-05-10T04:15:13.268Z,100995.83
2023-05-10T04:18:44.067Z,100994.25
2023-05-10T04:21:45.898Z,100993.15
2023-05-10T04:25:25.331Z,100991.33
2023-05-10T04:28:30.326Z,100996.84
2023-05-10T04:31:50.380Z,100996.13
2023-05-10T04:35:10.521Z,100995.58
2023-05-10T04:38:48.637Z,100995.71
2023-05-10T04:41:49.595Z,100996.31
2023-05-10T04:45:17.298Z,101001.83
2023-05-10T04:48:25.756Z,100998.84
2023-05-10T04:51:06.973Z,101000.73
2023-05-10T04:54:07.866Z,100997.67
2023-05-10T04:57:08.443Z,100998.72
2023-05-10T05:00:44.417Z,101002.21
2023-05-10T05:04:32.001Z,101003.79
2023-05-10T05:08:09.767Z,101003.92
2023-05-10T05:11:48.306Z,101007.52
2023-05-10T05:15:18.273Z,101003.48
2023-05-10T05:18:46.357Z,101006.31
2023-05-10T05:22:01.598Z,101003.19
2023-05-10T05:25:49.495Z,101008.26
2023-05-10T05:29:12.455Z,101009.23
2023-05-10T05:32:58.837Z,101010.45
2023-05-10T05:36:17.999Z,101008.65
2023-05-10T05:39:14.267Z,101011.41
2023-05-10T05:43:01.815Z,101006.08
2023-05-10T05:46:48.238Z,101006.18
2023-05-10T05:50:09.730Z,101004.41
2023-05-10T05:53:37.295Z,101002.35
2023-05-10T05:56:26.213Z,101001.96
2023-05-10T05:59:46.252Z,101000.34
2023-05-10T06:02:55.741Z,100997.73
2023-05-10T06:06:26.580Z,100998.98
2023-05-10T06:09:46.546Z,100999.00
2023-05-10T06:13:23.980Z,100994.33
2023-05-10T06:16:36.780Z,100992.39
2023-05-10T06:20:05.216Z,100989.68
2023-05-10T06:23:17.428Z,100990.21
2023-05-10T06:27:03.768Z,100992.99
2023-05-10T06:30:12.234Z,100986.19
2023-05-10T06:33:39.494Z,100989.70
2023-05-10T06:36:51.025Z,100991.83
2023-05-10T06:40:38.518Z,100986.94
2023-05-10T06:44:01.527Z,100985.41
2023-05-10T06:47:49.130Z,100989.05
2023-05-10T06:51:37.767Z,100985.47
2023-05-10T06:55:02.770Z,100991.66
2023-05-10T06:58:27.250Z,100991.27
2023-05-10T07:02:15.756Z,100990.04
2023-05-10T07:05:28.361Z,100983.84
2023-05-10T07:09:06.260Z,100984.58
2023-05-10T07:12:24.760Z,100977.97
2023-05-10T07:15:49.147Z,100972.71
2023-05-10T07:19:35.771Z,100965.14
2023-05-10T07:23:23.744Z,100965.59
2023-05-10T07:27:11.295Z,100959.42
2023-05-10T07:30:58.868Z,100956.77
2023-05-10T07:34:46.459Z,100953.97
2023-05-10T07:38:34.101Z,100953.05
2023-05-10T07:42:04.449Z,100959.58
2023-05-10T07:45:53.362Z,100951.99
2023-05-10T07:49:42.878Z,100947.48
2023-05-10T07:53:30.375Z,100947.91
2023-05-10T07:57:21.362Z,100949.80
2023-05-10T08:01:09.837Z,100941.19
2023-05-10T08:04:57.507Z,100946.39
2023-05-10T08:08:48.950Z,100950.55
2023-05-10T08:12:36.775Z,100941.98
2023-05-10T08:16:24.624Z,100940.10
2023-05-10T08:20:12.253Z,100939.79
2023-05-10T08:24:01.646Z,100946.44
2023-05-10T08:27:49.333Z,100944.58
2023-05-10T08:31:37.311Z,100944.15
2023-05-10T08:35:21.836Z,100941.52
2023-05-10T08:39:22.859Z,100933.19
2023-05-10T08:43:25.705Z,100940.89
2023-05-10T08:47:14.587Z,100932.27
2023-05-10T08:51:04.430Z,100936.37
2023-05-10T08:54:52.839Z,100924.94
2023-05-10T08:58:40.584Z,100925.15
2023-05-10T09:02:31.073Z,100929.90
2023-05-10T09:06:19.430Z,100920.48
2023-05-10T09:10:07.696Z,100921.02
2023-05-10T09:13:55.529Z,100917.79
2023-05-10T09:17:46.453Z,100911.05
2023-05-10T09:21:34.023Z,100912.57
2023-05-10T09:25:27.002Z,100905.89
2023-05-10T09:29:15.978Z,100914.89
2023-05-10T09:32:59.730Z,100920.84
2023-05-10T09:36:53.114Z,100923.17
2023-05-10T09:41:00.960Z,100921.76
2023-05-10T09:44:50.144Z,100919.61
2023-05-10T09:48:38.100Z,100916.76
2023-05-10T09:52:47.276Z,100920.60
2023-05-10T09:56:41.720Z,100910.17
2023-05-10T10:00:32.809Z,100915.05
2023-05-10T10:04:23.682Z,100905.71
2023-05-10T10:08:11.568Z,100901.35
2023-05-10T10:11:59.589Z,100892.11
2023-05-10T10:15:48.359Z,100892.17
2023-05-10T10:19:38.645Z,100888.57
2023-05-10T10:23:28.868Z,100892.50
2023-05-10T10:27:21.250Z,100891.91
2023-05-10T10:31:23.850Z,100894.95
2023-05-10T10:35:30.021Z,100895.02
2023-05-10T10:39:28.450Z,100886.53
2023-05-10T10:43:30.248Z,100882.29
2023-05-10T10:47:24.950Z,100874.91
2023-05-10T10:51:14.800Z,100864.34
2023-05-10T10:55:12.570Z,100866.99
2023-05-10T10:59:06.507Z,100864.00
2023-05-10T11:03:14.086Z,100853.60
2023-05-10T11:07:09.494Z,100869.95
2023-05-10T11:10:58.732Z,100867.95
2023-05-10T11:14:49.219Z,100863.35
2023-05-10T11:18:50.565Z,100845.82
2023-05-10T11:22:46.648Z,100849.96
2023-05-10T11:26:34.670Z,100855.66
2023-05-10T11:30:23.009Z,100849.57
2023-05-10T11:34:09.675Z,100849.48
2023-05-10T11:37:48.557Z,100853.05
2023-05-10T11:45:54.673Z,100849.08
2023-05-10T11:49:20.082Z,100851.09
2023-05-10T11:53:08.165Z,100851.15
2023-05-10T11:56:52.740Z,100846.59
2023-05-10T12:00:40.918Z,100850.58
2023-05-10T12:04:22.661Z,100841.44
2023-05-10T12:08:10.561Z,100841.96
2023-05-10T12:12:05.465Z,100844.33
2023-05-10T12:15:51.768Z,100856.40
2023-05-10T12:19:01.120Z,100850.63
2023-05-10T12:22:25.900Z,100846.35
2023-05-10T12:26:14.038Z,100849.02
2023-05-10T12:30:12.166Z,100841.64
2023-05-10T12:33:52.185Z,100849.70
2023-05-10T12:37:31.674Z,100853.69
2023-05-10T12:41:04.579Z,100855.81
2023-05-10T12:44:43.151Z,100849.69
2023-05-10T12:48:17.239Z,100844.20
2023-05-10T12:51:57.648Z,100846.05
2023-05-10T12:55:20.922Z,100842.17
2023-05-10T12:59:09.074Z,100833.04
2023-05-10T13:02:57.597Z,100846.59
2023-05-10T13:06:45.566Z,100841.66
2023-05-10T13:10:24.384Z,100828.94
2023-05-10T13:13:57.632Z,100830.05
2023-05-10T13:17:45.586Z,100833.88
2023-05-10T13:21:18.480Z,100829.15
2023-05-10T13:24:58.770Z,100821.39
2023-05-10T13:28:40.104Z,100831.16
2023-05-10T13:32:20.736Z,100829.52
2023-05-10T13:35:46.159Z,100820.63
2023-05-10T13:39:31.299Z,100813.28
2023-05-10T13:43:19.009Z,100817.58
2023-05-10T13:47:00.086Z,100812.35
2023-05-10T13:50:25.022Z,100813.19
2023-05-10T13:54:13.654Z,100804.55
2023-05-10T13:57:09.819Z,100810.34
2023-05-10T14:00:27.962Z,100807.92
2023-05-10T14:04:15.662Z,100802.19
2023-05-10T14:07:57.136Z,100807.20
2023-05-10T14:11:24.767Z,100804.34
2023-05-10T14:15:08.406Z,100797.76
2023-05-10T14:18:49.729Z,100788.88
2023-05-10T14:22:21.578Z,100794.86
2023-05-10T14:25:49.419Z,100793.88
2023-05-10T14:29:12.439Z,100788.87
2023-05-10T14:33:04.338Z,100787.58
2023-05-10T14:36:28.809Z,100785.31
2023-05-10T14:40:10.437Z,100781.16
2023-05-10T14:43:57.009Z,100784.80
2023-05-10T14:46:56.188Z,100784.34
2023-05-10T14:50:07.052Z,100782.33
2023-05-10T14:53:45.806Z,100778.05
2023-05-10T14:57:34.011Z,100789.98
2023-05-10T15:01:21.997Z,100785.18
2023-05-10T15:05:03.320Z,100786.64
2023-05-10T15:08:43.588Z,100785.69
2023-05-10T15:12:31.304Z,100783.90
2023-05-10T15:16:04.963Z,100784.98
2023-05-10T15:19:27.765Z,100789.42
2023-05-10T15:23:04.147Z,100785.36
2023-05-10T15:25:51.021Z,100787.33
2023-05-10T15:28:21.388Z,100790.85
2023-05-10T15:31:45.797Z,100788.44
2023-05-10T15:35:06.662Z,100791.68
2023-05-10T15:38:38.209Z,100791.86
2023-05-10T15:42:26.372Z,100794.31
2023-05-10T15:46:06.145Z,100797.37
2023-05-10T15:49:35.732Z,100791.63
2023-05-10T15:52:22.328Z,100791.84
2023-05-10T15:56:00.139Z,100781.66
2023-05-10T15:59:48.034Z,100780.33
2023-05-10T16:03:21.080Z,100781.64
2023-05-10T16:06:52.024Z,100786.02
2023-05-10T16:10:29.893Z,100782.56
2023-05-10T16:14:17.952Z,100789.71
2023-05-10T16:18:05.953Z,100787.12
2023-05-10T16:21:42.957Z,100790.41
2023-05-10T16:25:21.866Z,100795.66
2023-05-10T16:28:53.130Z,100799.15
2023-05-10T16:32:27.990Z,100804.86
2023-05-10T16:36:08.718Z,100803.45
2023-05-10T16:39:48.006Z,100805.70
2023-05-10T16:43:36.359Z,100802.41
2023-05-10T16:47:15.700Z,100809.45
2023-05-10T16:51:03.952Z,100807.42
2023-05-10T16:54:44.724Z,100808.84
2023-05-10T16:58:15.001Z,100805.45
2023-05-10T17:02:03.037Z,100810.05
2023-05-10T17:05:51.768Z,100816.63
2023-05-10T17:09:40.091Z,100815.75
2023-05-10T17:13:20.224Z,100817.88
2023-05-10T17:16:52.062Z,100823.16
2023-05-10T17:20:40.107Z,100821.55
2023-05-10T17:24:20.696Z,100826.27
2023-05-10T17:28:08.715Z,100827.95
2023-05-10T17:31:27.107Z,100838.21
2023-05-10T17:35:10.334Z,100835.54
2023-05-10T17:38:48.181Z,100841.05
2023-05-10T17:42:22.086Z,100840.84
2023-05-10T17:45:52.386Z,100847.96
2023-05-10T17:48:52.749Z,100849.13
2023-05-10T17:52:08.153Z,100854.30
2023-05-10T17:55:44.823Z,100857.67
2023-05-10T17:59:08.798Z,100858.08
2023-05-10T18:02:43.546Z,100861.86
2023-05-10T18:06:32.030Z,100865.65
2023-05-10T18:09:39.471Z,100872.05
2023-05-10T18:13:20.062Z,100869.25
2023-05-10T18:16:41.087Z,100873.23
2023-05-10T18:20:11.348Z,100875.59
2023-05-10T18:23:59.685Z,100879.11
2023-05-10T18:27:22.224Z,100884.32
2023-05-10T18:30:40.980Z,100885.98
2023-05-10T18:33:33.657Z,100889.11
2023-05-10T18:36:48.186Z,100892.88
2023-05-10T18:40:28.594Z,100898.12
2023-05-10T18:43:41.952Z,100900.39
2023-05-10T18:46:53.941Z,100907.39
2023-05-10T18:50:17.197Z,100909.30
2023-05-10T18:53:37.450Z,100913.33
2023-05-10T18:56:56.696Z,100920.23
2023-05-10T19:00:29.060Z,100919.92
2023-05-10T19:04:19.698Z,100923.30
2023-05-10T19:07:34.243Z,100930.06
2023-05-10T19:10:46.588Z,100935.27
2023-05-10T19:13:58.050Z,100933.47
2023-05-10T19:16:48.062Z,100936.02
2023-05-10T19:20:06.250Z,100939.34
2023-05-10T19:23:39.585Z,100937.67
2023-05-10T19:26:39.991Z,100942.61
2023-05-10T19:29:50.474Z,100945.59
2023-05-10T19:33:08.835Z,100943.28
2023-05-10T19:36:48.588Z,100946.95
2023-05-10T19:40:38.502Z,100951.16
2023-05-10T19:44:09.682Z,100952.23
2023-05-10T19:47:53.502Z,100951.14
2023-05-10T19:51:11.120Z,100951.30
2023-05-10T19:54:14.378Z,100951.27
2023-05-10T19:57:32.256Z,100952.42
2023-05-10T20:01:26.978Z,100954.67
2023-05-10T20:04:44.250Z,100960.27
2023-05-10T20:08:20.835Z,100958.48
2023-05-10T20:11:55.041Z,100962.20
2023-05-10T20:15:27.088Z,100964.42
2023-05-10T20:18:50.031Z,100967.32
2023-05-10T20:22:01.311Z,100965.48
2023-05-10T20:24:59.257Z,100961.77
2023-05-10T20:28:40.483Z,100966.66
2023-05-10T20:32:30.215Z,100966.69
2023-05-10T20:35:54.872Z,100972.84
2023-05-10T20:39:43.255Z,100972.76
2023-05-10T20:42:46.388Z,100973.09
2023-05-10T20:46:24.852Z,100976.52
2023-05-10T20:49:24.320Z,100974.36
2023-05-10T20:53:00.480Z,100974.02
2023-05-10T20:56:48.483Z,100974.12
2023-05-10T21:00:29.622Z,100982.00
2023-05-10T21:04:18.421Z,100987.87
2023-05-10T21:07:57.361Z,100992.38
2023-05-10T21:10:56.060Z,100993.13
2023-05-10T21:14:18.862Z,100992.67
2023-05-10T21:17:44.475Z,100993.64
2023-05-10T21:20:59.173Z,100995.45
2023-05-10T21:24:36.964Z,101001.27
2023-05-10T21:28:16.376Z,101000.48
2023-05-10T21:32:04.348Z,101003.62
2023-05-10T21:35:20.146Z,101005.26
2023-05-10T21:38:50.958Z,101003.25
2023-05-10T21:42:38.707Z,100998.21
2023-05-10T21:46:27.189Z,101001.20
2023-05-10T21:50:04.002Z,101001.96
2023-05-10T21:53:50.599Z,101002.64
2023-05-10T21:57:38.738Z,101005.55
2023-05-10T22:01:02.032Z,101002.90
2023-05-10T22:03:51.087Z,101007.34
2023-05-10T22:07:16.042Z,101006.84
2023-05-10T22:11:03.749Z,101012.45
2023-05-10T22:15:06.490Z,101010.67
2023-05-10T22:18:57.556Z,101014.37
2023-05-10T22:21:53.483Z,101013.92
2023-05-10T22:25:18.054Z,101015.27
2023-05-10T22:28:10.899Z,101018.61
2023-05-10T22:31:48.896Z,101019.67
2023-05-10T22:35:15.524Z,101021.23
2023-05-10T22:38:12.088Z,101022.48
2023-05-10T22:41:26.198Z,101024.90
2023-05-10T22:44:57.431Z,101030.44
2023-05-10T22:48:34.990Z,101027.80
2023-05-10T22:51:56.106Z,101027.05
2023-05-10T22:55:42.867Z,101031.21
2023-05-10T22:59:21.012Z,101037.81
2023-05-10T23:02:27.508Z,101042.83
2023-05-10T23:06:15.429Z,101045.20
2023-05-10T23:09:52.448Z,101044.52
2023-05-10T23:13:40.141Z,101046.69
2023-05-10T23:16:40.820Z,101046.69
2023-05-10T23:20:20.289Z,101043.34
2023-05-10T23:23:41.176Z,101047.48
2023-05-10T23:26:56.216Z,101045.10
2023-05-10T23:29:56.220Z,101048.11
2023-05-10T23:33:27.517Z,101050.52
2023-05-10T23:36:38.116Z,101048.16
2023-05-10T23:40:18.730Z,101046.20
2023-05-10T23:43:28.903Z,101044.20
2023-05-10T23:46:27.122Z,101046.83
2023-05-10T23:50:06.369Z,101049.77
2023-05-10T23:53:37.310Z,101056.06
2023-05-10T23:57:13.202Z,101054.83
